sensor_id;sensor_type;location;lat;lon;timestamp;P1;durP1;ratioP1;P2;durP2;ratioP2
18411;SDS011;27097;51.738;19.472;2022-12-18T00:00:58;19.95;;;10.63;;
18411;SDS011;27097;51.738;19.472;2022-12-18T00:03:24;20.95;;;10.65;;
18411;SDS011;27097;51.738;19.472;2022-12-18T00:05:53;20.60;;;10.70;;
18411;SDS011;27097;51.738;19.472;2022-12-18T00:08:20;20.80;;;10.65;;
18411;SDS011;27097;51.738;19.472;2022-12-18T00:10:47;22.40;;;10.52;;
18411;SDS011;27097;51.738;19.472;2022-12-18T00:13:13;20.75;;;10.80;;
18411;SDS011;27097;51.738;19.472;2022-12-18T00:15:40;19.08;;;11.13;;
18411;SDS011;27097;51.738;19.472;2022-12-18T00:18:07;22.17;;;10.55;;
18411;SDS011;27097;51.738;19.472;2022-12-18T00:20:37;18.88;;;10.65;;
18411;SDS011;27097;51.738;19.472;2022-12-18T00:23:07;19.08;;;10.23;;
18411;SDS011;27097;51.738;19.472;2022-12-18T00:25:34;24.73;;;10.70;;
18411;SDS011;27097;51.738;19.472;2022-12-18T00:28:01;20.00;;;10.70;;
18411;SDS011;27097;51.738;19.472;2022-12-18T00:30:29;21.63;;;10.93;;
18411;SDS011;27097;51.738;19.472;2022-12-18T00:32:56;19.55;;;10.55;;
18411;SDS011;27097;51.738;19.472;2022-12-18T00:35:23;23.80;;;10.82;;
18411;SDS011;27097;51.738;19.472;2022-12-18T00:37:50;21.63;;;11.20;;
18411;SDS011;27097;51.738;19.472;2022-12-18T00:40:19;22.35;;;10.73;;
18411;SDS011;27097;51.738;19.472;2022-12-18T00:42:45;20.38;;;10.82;;
18411;SDS011;27097;51.738;19.472;2022-12-18T00:45:20;24.95;;;11.80;;
18411;SDS011;27097;51.738;19.472;2022-12-18T00:47:47;18.63;;;10.93;;
18411;SDS011;27097;51.738;19.472;2022-12-18T00:50:14;21.40;;;10.80;;
18411;SDS011;27097;51.738;19.472;2022-12-18T00:52:41;27.02;;;10.68;;
18411;SDS011;27097;51.738;19.472;2022-12-18T00:55:08;26.02;;;11.18;;
18411;SDS011;27097;51.738;19.472;2022-12-18T00:57:37;23.05;;;11.32;;
18411;SDS011;27097;51.738;19.472;2022-12-18T01:00:04;19.80;;;11.30;;
18411;SDS011;27097;51.738;19.472;2022-12-18T01:02:32;21.67;;;10.63;;
18411;SDS011;27097;51.738;19.472;2022-12-18T01:04:59;20.55;;;10.77;;
18411;SDS011;27097;51.738;19.472;2022-12-18T01:07:26;19.27;;;10.68;;
18411;SDS011;27097;51.738;19.472;2022-12-18T01:09:53;19.85;;;11.00;;
18411;SDS011;27097;51.738;19.472;2022-12-18T01:12:20;20.13;;;10.82;;
18411;SDS011;27097;51.738;19.472;2022-12-18T01:14:48;19.58;;;10.75;;
18411;SDS011;27097;51.738;19.472;2022-12-18T01:17:15;20.95;;;10.98;;
18411;SDS011;27097;51.738;19.472;2022-12-18T01:19:42;18.50;;;10.65;;
18411;SDS011;27097;51.738;19.472;2022-12-18T01:22:08;19.70;;;10.55;;
18411;SDS011;27097;51.738;19.472;2022-12-18T01:24:35;19.02;;;10.45;;
18411;SDS011;27097;51.738;19.472;2022-12-18T01:27:02;19.42;;;10.65;;
18411;SDS011;27097;51.738;19.472;2022-12-18T01:29:29;18.45;;;10.00;;
18411;SDS011;27097;51.738;19.472;2022-12-18T01:31:57;18.77;;;10.68;;
18411;SDS011;27097;51.738;19.472;2022-12-18T01:34:24;19.02;;;10.70;;
18411;SDS011;27097;51.738;19.472;2022-12-18T01:36:51;19.58;;;9.98;;
18411;SDS011;27097;51.738;19.472;2022-12-18T01:39:18;18.65;;;10.23;;
18411;SDS011;27097;51.738;19.472;2022-12-18T01:41:45;22.83;;;10.65;;
18411;SDS011;27097;51.738;19.472;2022-12-18T01:47:26;19.63;;;10.32;;
18411;SDS011;27097;51.738;19.472;2022-12-18T01:49:56;20.77;;;10.57;;
18411;SDS011;27097;51.738;19.472;2022-12-18T01:52:25;18.75;;;9.88;;
18411;SDS011;27097;51.738;19.472;2022-12-18T01:54:55;21.08;;;10.65;;
18411;SDS011;27097;51.738;19.472;2022-12-18T01:57:23;18.17;;;10.38;;
18411;SDS011;27097;51.738;19.472;2022-12-18T01:59:52;18.35;;;9.95;;
18411;SDS011;27097;51.738;19.472;2022-12-18T02:02:20;17.52;;;10.05;;
18411;SDS011;27097;51.738;19.472;2022-12-18T02:04:49;19.85;;;10.52;;
18411;SDS011;27097;51.738;19.472;2022-12-18T02:07:17;17.38;;;10.20;;
18411;SDS011;27097;51.738;19.472;2022-12-18T02:09:53;19.00;;;10.20;;
18411;SDS011;27097;51.738;19.472;2022-12-18T02:12:25;18.33;;;10.48;;
18411;SDS011;27097;51.738;19.472;2022-12-18T02:14:58;18.38;;;10.20;;
18411;SDS011;27097;51.738;19.472;2022-12-18T02:17:32;19.45;;;10.00;;
18411;SDS011;27097;51.738;19.472;2022-12-18T02:20:07;21.00;;;10.30;;
18411;SDS011;27097;51.738;19.472;2022-12-18T02:22:43;19.60;;;11.10;;
18411;SDS011;27097;51.738;19.472;2022-12-18T02:25:24;19.10;;;10.60;;
18411;SDS011;27097;51.738;19.472;2022-12-18T02:28:06;19.58;;;10.98;;
18411;SDS011;27097;51.738;19.472;2022-12-18T02:30:36;18.33;;;10.63;;
18411;SDS011;27097;51.738;19.472;2022-12-18T02:33:06;19.02;;;10.70;;
18411;SDS011;27097;51.738;19.472;2022-12-18T02:35:35;19.95;;;10.75;;
18411;SDS011;27097;51.738;19.472;2022-12-18T02:38:03;18.60;;;10.93;;
18411;SDS011;27097;51.738;19.472;2022-12-18T02:40:30;20.15;;;11.27;;
18411;SDS011;27097;51.738;19.472;2022-12-18T02:43:02;19.95;;;10.82;;
18411;SDS011;27097;51.738;19.472;2022-12-18T02:45:34;20.00;;;10.95;;
18411;SDS011;27097;51.738;19.472;2022-12-18T02:48:01;20.67;;;11.63;;
18411;SDS011;27097;51.738;19.472;2022-12-18T02:50:30;22.48;;;11.32;;
18411;SDS011;27097;51.738;19.472;2022-12-18T02:53:04;27.38;;;12.70;;
18411;SDS011;27097;51.738;19.472;2022-12-18T02:55:40;24.80;;;12.18;;
18411;SDS011;27097;51.738;19.472;2022-12-18T02:58:17;23.70;;;11.65;;
18411;SDS011;27097;51.738;19.472;2022-12-18T03:00:51;27.60;;;10.93;;
18411;SDS011;27097;51.738;19.472;2022-12-18T03:03:25;23.33;;;11.45;;
18411;SDS011;27097;51.738;19.472;2022-12-18T03:05:56;24.67;;;12.13;;
18411;SDS011;27097;51.738;19.472;2022-12-18T03:08:28;26.10;;;10.82;;
18411;SDS011;27097;51.738;19.472;2022-12-18T03:10:58;26.48;;;11.40;;
18411;SDS011;27097;51.738;19.472;2022-12-18T03:13:28;24.60;;;11.65;;
18411;SDS011;27097;51.738;19.472;2022-12-18T03:16:00;22.65;;;10.48;;
18411;SDS011;27097;51.738;19.472;2022-12-18T03:18:30;22.48;;;10.55;;
18411;SDS011;27097;51.738;19.472;2022-12-18T03:21:02;22.90;;;11.02;;
18411;SDS011;27097;51.738;19.472;2022-12-18T03:23:33;20.70;;;10.90;;
18411;SDS011;27097;51.738;19.472;2022-12-18T03:26:03;21.15;;;10.50;;
18411;SDS011;27097;51.738;19.472;2022-12-18T03:28:35;22.83;;;10.52;;
18411;SDS011;27097;51.738;19.472;2022-12-18T03:31:07;19.23;;;10.13;;
18411;SDS011;27097;51.738;19.472;2022-12-18T03:33:39;24.40;;;10.40;;
18411;SDS011;27097;51.738;19.472;2022-12-18T03:36:08;19.23;;;10.48;;
18411;SDS011;27097;51.738;19.472;2022-12-18T03:38:35;22.25;;;10.07;;
18411;SDS011;27097;51.738;19.472;2022-12-18T03:41:05;18.42;;;9.88;;
18411;SDS011;27097;51.738;19.472;2022-12-18T03:43:42;19.02;;;9.85;;
18411;SDS011;27097;51.738;19.472;2022-12-18T03:46:21;19.33;;;9.40;;
18411;SDS011;27097;51.738;19.472;2022-12-18T03:48:56;20.27;;;10.05;;
18411;SDS011;27097;51.738;19.472;2022-12-18T03:51:28;18.63;;;9.38;;
18411;SDS011;27097;51.738;19.472;2022-12-18T03:54:02;17.75;;;9.45;;
18411;SDS011;27097;51.738;19.472;2022-12-18T03:56:31;18.23;;;8.93;;
18411;SDS011;27097;51.738;19.472;2022-12-18T03:59:02;19.50;;;10.25;;
18411;SDS011;27097;51.738;19.472;2022-12-18T04:01:33;17.10;;;9.20;;
18411;SDS011;27097;51.738;19.472;2022-12-18T04:04:03;17.83;;;9.50;;
18411;SDS011;27097;51.738;19.472;2022-12-18T04:06:32;15.60;;;9.63;;
18411;SDS011;27097;51.738;19.472;2022-12-18T04:08:59;16.52;;;9.52;;
18411;SDS011;27097;51.738;19.472;2022-12-18T04:11:26;17.63;;;9.65;;
18411;SDS011;27097;51.738;19.472;2022-12-18T04:13:55;18.70;;;9.35;;
18411;SDS011;27097;51.738;19.472;2022-12-18T04:16:22;15.23;;;8.73;;
18411;SDS011;27097;51.738;19.472;2022-12-18T04:18:50;18.45;;;9.70;;
18411;SDS011;27097;51.738;19.472;2022-12-18T04:21:17;16.52;;;9.45;;
18411;SDS011;27097;51.738;19.472;2022-12-18T04:23:45;19.83;;;9.65;;
18411;SDS011;27097;51.738;19.472;2022-12-18T04:26:12;20.08;;;9.25;;
18411;SDS011;27097;51.738;19.472;2022-12-18T04:28:39;17.55;;;9.40;;
18411;SDS011;27097;51.738;19.472;2022-12-18T04:31:06;15.23;;;8.80;;
18411;SDS011;27097;51.738;19.472;2022-12-18T04:33:33;18.98;;;8.73;;
18411;SDS011;27097;51.738;19.472;2022-12-18T04:36:01;15.40;;;8.40;;
18411;SDS011;27097;51.738;19.472;2022-12-18T04:38:28;18.02;;;9.50;;
18411;SDS011;27097;51.738;19.472;2022-12-18T04:40:55;16.98;;;9.32;;
18411;SDS011;27097;51.738;19.472;2022-12-18T04:43:21;14.50;;;8.60;;
18411;SDS011;27097;51.738;19.472;2022-12-18T04:45:48;14.02;;;8.95;;
18411;SDS011;27097;51.738;19.472;2022-12-18T04:48:15;16.83;;;9.52;;
18411;SDS011;27097;51.738;19.472;2022-12-18T04:50:42;15.40;;;9.40;;
18411;SDS011;27097;51.738;19.472;2022-12-18T04:53:10;15.85;;;8.88;;
18411;SDS011;27097;51.738;19.472;2022-12-18T04:55:37;15.40;;;8.75;;
18411;SDS011;27097;51.738;19.472;2022-12-18T04:58:04;15.80;;;9.15;;
18411;SDS011;27097;51.738;19.472;2022-12-18T05:00:31;17.80;;;9.30;;
18411;SDS011;27097;51.738;19.472;2022-12-18T05:02:59;16.77;;;8.75;;
18411;SDS011;27097;51.738;19.472;2022-12-18T05:05:27;15.93;;;9.10;;
18411;SDS011;27097;51.738;19.472;2022-12-18T05:07:54;15.10;;;9.20;;
18411;SDS011;27097;51.738;19.472;2022-12-18T05:10:22;15.23;;;8.95;;
18411;SDS011;27097;51.738;19.472;2022-12-18T05:12:49;19.17;;;9.50;;
18411;SDS011;27097;51.738;19.472;2022-12-18T05:15:26;17.38;;;9.32;;
18411;SDS011;27097;51.738;19.472;2022-12-18T05:17:53;14.73;;;8.45;;
18411;SDS011;27097;51.738;19.472;2022-12-18T05:20:22;16.95;;;9.30;;
18411;SDS011;27097;51.738;19.472;2022-12-18T05:22:52;15.30;;;9.30;;
18411;SDS011;27097;51.738;19.472;2022-12-18T05:25:19;21.05;;;9.32;;
18411;SDS011;27097;51.738;19.472;2022-12-18T05:27:47;14.18;;;9.02;;
18411;SDS011;27097;51.738;19.472;2022-12-18T05:30:15;14.77;;;9.18;;
18411;SDS011;27097;51.738;19.472;2022-12-18T05:32:42;15.60;;;9.32;;
18411;SDS011;27097;51.738;19.472;2022-12-18T05:35:10;15.18;;;8.85;;
18411;SDS011;27097;51.738;19.472;2022-12-18T05:37:38;14.80;;;8.90;;
18411;SDS011;27097;51.738;19.472;2022-12-18T05:40:05;16.10;;;9.48;;
18411;SDS011;27097;51.738;19.472;2022-12-18T05:42:33;15.43;;;8.98;;
18411;SDS011;27097;51.738;19.472;2022-12-18T05:45:01;15.23;;;9.25;;
18411;SDS011;27097;51.738;19.472;2022-12-18T05:47:29;15.68;;;9.18;;
18411;SDS011;27097;51.738;19.472;2022-12-18T05:49:56;15.30;;;9.40;;
18411;SDS011;27097;51.738;19.472;2022-12-18T05:52:23;15.57;;;9.68;;
18411;SDS011;27097;51.738;19.472;2022-12-18T05:54:50;22.30;;;8.88;;
18411;SDS011;27097;51.738;19.472;2022-12-18T05:57:17;14.05;;;8.95;;
18411;SDS011;27097;51.738;19.472;2022-12-18T05:59:44;15.63;;;9.60;;
18411;SDS011;27097;51.738;19.472;2022-12-18T06:02:12;15.02;;;8.68;;
18411;SDS011;27097;51.738;19.472;2022-12-18T06:04:39;17.10;;;9.82;;
18411;SDS011;27097;51.738;19.472;2022-12-18T06:07:06;17.33;;;9.43;;
18411;SDS011;27097;51.738;19.472;2022-12-18T06:09:33;17.23;;;9.40;;
18411;SDS011;27097;51.738;19.472;2022-12-18T06:11:59;17.83;;;10.18;;
18411;SDS011;27097;51.738;19.472;2022-12-18T06:14:26;17.75;;;9.52;;
18411;SDS011;27097;51.738;19.472;2022-12-18T06:16:53;14.50;;;8.98;;
18411;SDS011;27097;51.738;19.472;2022-12-18T06:19:22;15.85;;;9.18;;
18411;SDS011;27097;51.738;19.472;2022-12-18T06:21:48;16.40;;;9.20;;
18411;SDS011;27097;51.738;19.472;2022-12-18T06:24:16;17.17;;;10.15;;
18411;SDS011;27097;51.738;19.472;2022-12-18T06:26:43;15.38;;;9.50;;
18411;SDS011;27097;51.738;19.472;2022-12-18T06:29:10;16.30;;;9.10;;
18411;SDS011;27097;51.738;19.472;2022-12-18T06:31:37;16.55;;;9.85;;
18411;SDS011;27097;51.738;19.472;2022-12-18T06:34:04;17.00;;;10.10;;
18411;SDS011;27097;51.738;19.472;2022-12-18T06:36:32;17.20;;;9.73;;
18411;SDS011;27097;51.738;19.472;2022-12-18T06:38:59;16.38;;;9.70;;
18411;SDS011;27097;51.738;19.472;2022-12-18T06:41:26;16.40;;;10.20;;
18411;SDS011;27097;51.738;19.472;2022-12-18T06:43:53;17.58;;;10.13;;
18411;SDS011;27097;51.738;19.472;2022-12-18T06:46:20;18.30;;;10.38;;
18411;SDS011;27097;51.738;19.472;2022-12-18T06:48:47;16.52;;;9.90;;
18411;SDS011;27097;51.738;19.472;2022-12-18T06:51:16;16.85;;;9.65;;
18411;SDS011;27097;51.738;19.472;2022-12-18T06:53:46;16.42;;;9.52;;
18411;SDS011;27097;51.738;19.472;2022-12-18T06:56:13;16.65;;;10.38;;
18411;SDS011;27097;51.738;19.472;2022-12-18T06:58:39;16.77;;;9.95;;
18411;SDS011;27097;51.738;19.472;2022-12-18T07:01:07;18.85;;;10.95;;
18411;SDS011;27097;51.738;19.472;2022-12-18T07:03:36;18.10;;;10.10;;
18411;SDS011;27097;51.738;19.472;2022-12-18T07:06:03;18.00;;;10.15;;
18411;SDS011;27097;51.738;19.472;2022-12-18T07:08:31;18.80;;;10.07;;
18411;SDS011;27097;51.738;19.472;2022-12-18T07:11:02;18.08;;;10.02;;
18411;SDS011;27097;51.738;19.472;2022-12-18T07:13:29;18.38;;;10.20;;
18411;SDS011;27097;51.738;19.472;2022-12-18T07:16:02;18.45;;;10.30;;
18411;SDS011;27097;51.738;19.472;2022-12-18T07:18:33;18.75;;;10.05;;
18411;SDS011;27097;51.738;19.472;2022-12-18T07:21:02;19.30;;;10.38;;
18411;SDS011;27097;51.738;19.472;2022-12-18T07:23:31;22.48;;;9.95;;
18411;SDS011;27097;51.738;19.472;2022-12-18T07:26:04;20.63;;;10.15;;
18411;SDS011;27097;51.738;19.472;2022-12-18T07:28:32;18.83;;;10.20;;
18411;SDS011;27097;51.738;19.472;2022-12-18T07:31:02;21.15;;;10.57;;
18411;SDS011;27097;51.738;19.472;2022-12-18T07:33:29;17.13;;;9.57;;
18411;SDS011;27097;51.738;19.472;2022-12-18T07:35:56;20.70;;;10.93;;
18411;SDS011;27097;51.738;19.472;2022-12-18T07:38:24;18.83;;;10.90;;
18411;SDS011;27097;51.738;19.472;2022-12-18T07:40:51;20.63;;;11.32;;
18411;SDS011;27097;51.738;19.472;2022-12-18T07:43:19;24.65;;;12.23;;
18411;SDS011;27097;51.738;19.472;2022-12-18T07:45:48;28.38;;;11.93;;
18411;SDS011;27097;51.738;19.472;2022-12-18T07:48:15;22.35;;;11.80;;
18411;SDS011;27097;51.738;19.472;2022-12-18T07:50:42;24.33;;;12.68;;
18411;SDS011;27097;51.738;19.472;2022-12-18T07:53:09;24.73;;;12.35;;
18411;SDS011;27097;51.738;19.472;2022-12-18T07:55:36;33.55;;;12.10;;
18411;SDS011;27097;51.738;19.472;2022-12-18T07:58:03;24.77;;;12.75;;
18411;SDS011;27097;51.738;19.472;2022-12-18T08:00:31;33.75;;;12.75;;
18411;SDS011;27097;51.738;19.472;2022-12-18T08:02:58;23.73;;;12.10;;
18411;SDS011;27097;51.738;19.472;2022-12-18T08:05:26;28.83;;;13.30;;
18411;SDS011;27097;51.738;19.472;2022-12-18T08:07:53;23.13;;;12.82;;
18411;SDS011;27097;51.738;19.472;2022-12-18T08:10:21;35.00;;;13.40;;
18411;SDS011;27097;51.738;19.472;2022-12-18T08:12:48;28.55;;;12.35;;
18411;SDS011;27097;51.738;19.472;2022-12-18T08:15:16;31.55;;;13.38;;
18411;SDS011;27097;51.738;19.472;2022-12-18T08:17:44;28.85;;;13.48;;
18411;SDS011;27097;51.738;19.472;2022-12-18T08:20:11;34.30;;;13.48;;
18411;SDS011;27097;51.738;19.472;2022-12-18T08:22:39;38.45;;;14.80;;
18411;SDS011;27097;51.738;19.472;2022-12-18T08:25:07;37.10;;;14.48;;
18411;SDS011;27097;51.738;19.472;2022-12-18T08:27:34;29.27;;;14.35;;
18411;SDS011;27097;51.738;19.472;2022-12-18T08:30:02;34.53;;;14.02;;
18411;SDS011;27097;51.738;19.472;2022-12-18T08:32:30;36.08;;;14.55;;
18411;SDS011;27097;51.738;19.472;2022-12-18T08:34:59;34.50;;;14.18;;
18411;SDS011;27097;51.738;19.472;2022-12-18T08:37:26;30.83;;;14.02;;
18411;SDS011;27097;51.738;19.472;2022-12-18T08:39:53;26.70;;;11.93;;
18411;SDS011;27097;51.738;19.472;2022-12-18T08:42:20;27.48;;;11.55;;
18411;SDS011;27097;51.738;19.472;2022-12-18T08:45:04;24.75;;;10.77;;
18411;SDS011;27097;51.738;19.472;2022-12-18T08:47:32;32.83;;;11.38;;
18411;SDS011;27097;51.738;19.472;2022-12-18T08:50:00;29.50;;;11.52;;
18411;SDS011;27097;51.738;19.472;2022-12-18T08:52:27;27.33;;;10.68;;
18411;SDS011;27097;51.738;19.472;2022-12-18T08:54:54;19.58;;;10.05;;
18411;SDS011;27097;51.738;19.472;2022-12-18T08:57:21;22.88;;;10.55;;
18411;SDS011;27097;51.738;19.472;2022-12-18T08:59:48;19.50;;;10.23;;
18411;SDS011;27097;51.738;19.472;2022-12-18T09:02:15;27.10;;;10.95;;
18411;SDS011;27097;51.738;19.472;2022-12-18T09:04:42;26.55;;;10.82;;
18411;SDS011;27097;51.738;19.472;2022-12-18T09:07:10;28.70;;;10.98;;
18411;SDS011;27097;51.738;19.472;2022-12-18T09:09:37;25.17;;;11.02;;
18411;SDS011;27097;51.738;19.472;2022-12-18T09:12:04;24.83;;;11.52;;
18411;SDS011;27097;51.738;19.472;2022-12-18T09:14:31;22.92;;;11.40;;
18411;SDS011;27097;51.738;19.472;2022-12-18T09:16:58;23.25;;;10.15;;
18411;SDS011;27097;51.738;19.472;2022-12-18T09:19:25;28.35;;;11.27;;
18411;SDS011;27097;51.738;19.472;2022-12-18T09:21:54;27.77;;;11.75;;
18411;SDS011;27097;51.738;19.472;2022-12-18T09:24:22;29.77;;;12.32;;
18411;SDS011;27097;51.738;19.472;2022-12-18T09:26:52;25.25;;;12.75;;
18411;SDS011;27097;51.738;19.472;2022-12-18T09:29:20;27.75;;;11.18;;
18411;SDS011;27097;51.738;19.472;2022-12-18T09:31:49;25.00;;;11.98;;
18411;SDS011;27097;51.738;19.472;2022-12-18T09:34:16;26.52;;;11.25;;
18411;SDS011;27097;51.738;19.472;2022-12-18T09:36:45;28.70;;;11.60;;
18411;SDS011;27097;51.738;19.472;2022-12-18T09:39:12;26.75;;;11.30;;
18411;SDS011;27097;51.738;19.472;2022-12-18T09:41:45;24.92;;;11.18;;
18411;SDS011;27097;51.738;19.472;2022-12-18T09:44:22;25.30;;;11.63;;
18411;SDS011;27097;51.738;19.472;2022-12-18T09:46:59;22.05;;;10.65;;
18411;SDS011;27097;51.738;19.472;2022-12-18T09:49:31;25.42;;;11.45;;
18411;SDS011;27097;51.738;19.472;2022-12-18T09:52:04;29.02;;;10.65;;
18411;SDS011;27097;51.738;19.472;2022-12-18T09:54:39;25.95;;;10.90;;
18411;SDS011;27097;51.738;19.472;2022-12-18T09:57:11;19.55;;;10.50;;
18411;SDS011;27097;51.738;19.472;2022-12-18T09:59:41;22.52;;;10.68;;
18411;SDS011;27097;51.738;19.472;2022-12-18T10:02:15;23.85;;;11.88;;
18411;SDS011;27097;51.738;19.472;2022-12-18T10:04:48;20.73;;;10.25;;
18411;SDS011;27097;51.738;19.472;2022-12-18T10:07:24;18.52;;;10.50;;
18411;SDS011;27097;51.738;19.472;2022-12-18T10:09:58;23.02;;;10.88;;
18411;SDS011;27097;51.738;19.472;2022-12-18T10:12:32;24.13;;;11.02;;
18411;SDS011;27097;51.738;19.472;2022-12-18T10:15:06;18.73;;;9.85;;
18411;SDS011;27097;51.738;19.472;2022-12-18T10:17:41;18.88;;;9.77;;
18411;SDS011;27097;51.738;19.472;2022-12-18T10:20:19;20.92;;;10.32;;
18411;SDS011;27097;51.738;19.472;2022-12-18T10:22:53;21.80;;;10.40;;
18411;SDS011;27097;51.738;19.472;2022-12-18T10:25:25;19.10;;;9.63;;
18411;SDS011;27097;51.738;19.472;2022-12-18T10:28:00;20.10;;;9.65;;
18411;SDS011;27097;51.738;19.472;2022-12-18T10:30:35;21.15;;;9.73;;
18411;SDS011;27097;51.738;19.472;2022-12-18T10:33:05;17.38;;;9.32;;
18411;SDS011;27097;51.738;19.472;2022-12-18T10:35:33;16.95;;;8.30;;
18411;SDS011;27097;51.738;19.472;2022-12-18T10:40:52;20.42;;;9.60;;
18411;SDS011;27097;51.738;19.472;2022-12-18T10:43:23;16.98;;;9.35;;
18411;SDS011;27097;51.738;19.472;2022-12-18T10:48:49;17.80;;;8.63;;
18411;SDS011;27097;51.738;19.472;2022-12-18T10:51:19;17.40;;;9.13;;
18411;SDS011;27097;51.738;19.472;2022-12-18T10:53:51;17.40;;;8.80;;
18411;SDS011;27097;51.738;19.472;2022-12-18T10:56:20;19.40;;;9.15;;
18411;SDS011;27097;51.738;19.472;2022-12-18T10:58:56;22.38;;;9.57;;
18411;SDS011;27097;51.738;19.472;2022-12-18T11:01:25;20.02;;;8.95;;
18411;SDS011;27097;51.738;19.472;2022-12-18T11:03:59;19.02;;;9.65;;
18411;SDS011;27097;51.738;19.472;2022-12-18T11:06:29;20.20;;;8.70;;
18411;SDS011;27097;51.738;19.472;2022-12-18T11:08:59;24.27;;;10.63;;
18411;SDS011;27097;51.738;19.472;2022-12-18T11:11:28;18.48;;;9.57;;
18411;SDS011;27097;51.738;19.472;2022-12-18T11:14:00;15.55;;;8.15;;
18411;SDS011;27097;51.738;19.472;2022-12-18T11:16:30;19.92;;;7.85;;
18411;SDS011;27097;51.738;19.472;2022-12-18T11:19:12;15.13;;;8.75;;
18411;SDS011;27097;51.738;19.472;2022-12-18T11:21:46;18.85;;;8.55;;
18411;SDS011;27097;51.738;19.472;2022-12-18T11:24:17;19.35;;;9.82;;
18411;SDS011;27097;51.738;19.472;2022-12-18T11:26:47;19.13;;;9.90;;
18411;SDS011;27097;51.738;19.472;2022-12-18T11:29:17;17.88;;;9.15;;
18411;SDS011;27097;51.738;19.472;2022-12-18T11:31:49;19.65;;;9.85;;
18411;SDS011;27097;51.738;19.472;2022-12-18T11:34:17;18.23;;;8.45;;
18411;SDS011;27097;51.738;19.472;2022-12-18T11:36:52;17.52;;;9.27;;
18411;SDS011;27097;51.738;19.472;2022-12-18T11:39:19;17.55;;;8.55;;
18411;SDS011;27097;51.738;19.472;2022-12-18T11:41:51;22.58;;;10.65;;
18411;SDS011;27097;51.738;19.472;2022-12-18T11:44:41;22.95;;;9.98;;
18411;SDS011;27097;51.738;19.472;2022-12-18T11:47:13;22.98;;;11.55;;
18411;SDS011;27097;51.738;19.472;2022-12-18T11:49:50;23.85;;;11.23;;
18411;SDS011;27097;51.738;19.472;2022-12-18T11:52:19;18.13;;;9.68;;
18411;SDS011;27097;51.738;19.472;2022-12-18T11:54:50;19.20;;;10.10;;
18411;SDS011;27097;51.738;19.472;2022-12-18T11:57:21;19.45;;;10.70;;
18411;SDS011;27097;51.738;19.472;2022-12-18T12:00:01;22.58;;;11.25;;
18411;SDS011;27097;51.738;19.472;2022-12-18T12:02:36;20.02;;;10.10;;
18411;SDS011;27097;51.738;19.472;2022-12-18T12:05:20;22.35;;;10.82;;
18411;SDS011;27097;51.738;19.472;2022-12-18T12:07:58;21.30;;;11.38;;
18411;SDS011;27097;51.738;19.472;2022-12-18T12:10:39;28.30;;;12.95;;
18411;SDS011;27097;51.738;19.472;2022-12-18T12:13:21;27.55;;;12.85;;
18411;SDS011;27097;51.738;19.472;2022-12-18T12:15:58;23.85;;;11.30;;
18411;SDS011;27097;51.738;19.472;2022-12-18T12:18:44;28.27;;;12.80;;
18411;SDS011;27097;51.738;19.472;2022-12-18T12:21:28;31.23;;;11.82;;
18411;SDS011;27097;51.738;19.472;2022-12-18T12:24:04;24.02;;;11.90;;
18411;SDS011;27097;51.738;19.472;2022-12-18T12:26:48;21.42;;;10.82;;
18411;SDS011;27097;51.738;19.472;2022-12-18T12:29:26;23.60;;;10.13;;
18411;SDS011;27097;51.738;19.472;2022-12-18T12:32:15;25.38;;;10.23;;
18411;SDS011;27097;51.738;19.472;2022-12-18T12:34:57;18.05;;;9.20;;
18411;SDS011;27097;51.738;19.472;2022-12-18T12:37:38;22.10;;;10.85;;
18411;SDS011;27097;51.738;19.472;2022-12-18T12:40:13;26.88;;;10.68;;
18411;SDS011;27097;51.738;19.472;2022-12-18T12:42:46;25.33;;;10.13;;
18411;SDS011;27097;51.738;19.472;2022-12-18T12:45:34;21.70;;;10.20;;
18411;SDS011;27097;51.738;19.472;2022-12-18T12:48:06;25.88;;;11.50;;
18411;SDS011;27097;51.738;19.472;2022-12-18T12:50:42;27.98;;;10.65;;
18411;SDS011;27097;51.738;19.472;2022-12-18T12:53:11;27.65;;;11.75;;
18411;SDS011;27097;51.738;19.472;2022-12-18T12:55:46;20.73;;;10.68;;
18411;SDS011;27097;51.738;19.472;2022-12-18T12:58:14;24.92;;;11.82;;
18411;SDS011;27097;51.738;19.472;2022-12-18T13:00:47;23.77;;;11.02;;
18411;SDS011;27097;51.738;19.472;2022-12-18T13:03:22;30.02;;;11.48;;
18411;SDS011;27097;51.738;19.472;2022-12-18T13:05:59;25.52;;;10.80;;
18411;SDS011;27097;51.738;19.472;2022-12-18T13:08:31;24.83;;;11.52;;
18411;SDS011;27097;51.738;19.472;2022-12-18T13:11:27;25.35;;;10.45;;
18411;SDS011;27097;51.738;19.472;2022-12-18T13:14:37;28.08;;;10.65;;
18411;SDS011;27097;51.738;19.472;2022-12-18T13:17:16;21.00;;;9.25;;
18411;SDS011;27097;51.738;19.472;2022-12-18T13:19:52;24.42;;;9.30;;
18411;SDS011;27097;51.738;19.472;2022-12-18T13:22:30;21.73;;;10.05;;
18411;SDS011;27097;51.738;19.472;2022-12-18T13:25:00;18.92;;;9.32;;
18411;SDS011;27097;51.738;19.472;2022-12-18T13:27:51;27.20;;;9.68;;
18411;SDS011;27097;51.738;19.472;2022-12-18T13:36:32;20.38;;;9.35;;
18411;SDS011;27097;51.738;19.472;2022-12-18T13:39:09;21.45;;;9.30;;
18411;SDS011;27097;51.738;19.472;2022-12-18T13:41:52;22.45;;;8.63;;
18411;SDS011;27097;51.738;19.472;2022-12-18T13:44:31;18.40;;;8.73;;
18411;SDS011;27097;51.738;19.472;2022-12-18T13:46:59;15.77;;;7.55;;
18411;SDS011;27097;51.738;19.472;2022-12-18T13:49:29;18.33;;;7.22;;
18411;SDS011;27097;51.738;19.472;2022-12-18T13:52:10;21.65;;;8.60;;
18411;SDS011;27097;51.738;19.472;2022-12-18T13:54:42;39.00;;;10.32;;
18411;SDS011;27097;51.738;19.472;2022-12-18T13:57:24;18.52;;;8.45;;
18411;SDS011;27097;51.738;19.472;2022-12-18T13:59:53;17.38;;;7.85;;
18411;SDS011;27097;51.738;19.472;2022-12-18T14:09:23;17.13;;;9.63;;
18411;SDS011;27097;51.738;19.472;2022-12-18T14:11:52;26.02;;;9.70;;
18411;SDS011;27097;51.738;19.472;2022-12-18T14:14:43;17.40;;;8.27;;
18411;SDS011;27097;51.738;19.472;2022-12-18T14:17:12;18.27;;;8.65;;
18411;SDS011;27097;51.738;19.472;2022-12-18T14:19:43;22.55;;;9.68;;
18411;SDS011;27097;51.738;19.472;2022-12-18T14:22:16;18.55;;;9.05;;
18411;SDS011;27097;51.738;19.472;2022-12-18T14:24:46;22.77;;;9.13;;
18411;SDS011;27097;51.738;19.472;2022-12-18T14:27:21;19.13;;;8.90;;
18411;SDS011;27097;51.738;19.472;2022-12-18T14:29:49;21.50;;;9.05;;
18411;SDS011;27097;51.738;19.472;2022-12-18T14:32:17;18.17;;;9.70;;
18411;SDS011;27097;51.738;19.472;2022-12-18T14:34:46;17.35;;;9.07;;
18411;SDS011;27097;51.738;19.472;2022-12-18T14:37:15;17.20;;;8.35;;
18411;SDS011;27097;51.738;19.472;2022-12-18T14:39:54;17.77;;;9.05;;
18411;SDS011;27097;51.738;19.472;2022-12-18T14:42:23;23.25;;;9.43;;
18411;SDS011;27097;51.738;19.472;2022-12-18T14:47:53;20.60;;;9.23;;
18411;SDS011;27097;51.738;19.472;2022-12-18T14:50:20;22.63;;;9.73;;
18411;SDS011;27097;51.738;19.472;2022-12-18T14:52:47;17.65;;;8.45;;
18411;SDS011;27097;51.738;19.472;2022-12-18T14:55:16;21.52;;;9.30;;
18411;SDS011;27097;51.738;19.472;2022-12-18T14:57:44;18.33;;;9.38;;